Time;durP1;ratioP1;P1;durP2;ratioP2;P2;SDS_P1;SDS_P2;PMS_P1;PMS_P2;Temp;Humidity;BMP_temperature;BMP_pressure;BME280_temperature;BME280_humidity;BME280_pressure;Samples;Min_cycle;Max_cycle;Signal;HPM_P1;HPM_P2
2022/10/08 00:00:59;;;;;;;26.77;13.85;;;;;;;10.80;100.00;99352.09;4485514;31;20088;-76
2022/10/08 00:03:29;;;;;;;24.83;14.17;;;;;;;10.81;100.00;99345.09;4485697;31;20081;-75
2022/10/08 00:05:58;;;;;;;21.65;14.15;;;;;;;10.73;100.00;99353.56;4485813;31;20179;-76
2022/10/08 00:08:25;;;;;;;23.17;13.50;;;;;;;10.74;100.00;99351.78;4485604;31;20475;-75
2022/10/08 00:10:55;;;;;;;23.80;13.55;;;;;;;10.68;100.00;99350.50;4485618;31;20120;-76
2022/10/08 00:13:23;;;;;;;22.50;13.35;;;;;;;10.66;100.00;99349.78;4484395;32;20113;-75
2022/10/08 00:15:50;;;;;;;24.15;13.70;;;;;;;10.61;100.00;99346.69;4485494;31;20154;-76
2022/10/08 00:18:19;;;;;;;23.60;13.80;;;;;;;10.59;100.00;99346.00;4485757;31;20437;-76
2022/10/08 00:20:47;;;;;;;24.77;13.10;;;;;;;10.51;100.00;99340.50;4485439;31;20143;-75
2022/10/08 00:23:15;;;;;;;22.00;13.45;;;;;;;10.52;100.00;99345.63;4485563;31;20088;-76
2022/10/08 00:25:43;;;;;;;26.25;13.05;;;;;;;10.53;100.00;99342.06;4485570;31;20142;-75
2022/10/08 00:28:12;;;;;;;27.10;13.85;;;;;;;10.53;100.00;99336.00;4485668;31;20088;-75
2022/10/08 00:30:40;;;;;;;18.90;13.15;;;;;;;10.47;100.00;99337.31;4485518;31;20084;-76
2022/10/08 00:33:09;;;;;;;21.42;13.48;;;;;;;10.48;100.00;99336.38;4485566;31;20407;-76
2022/10/08 00:35:39;;;;;;;26.08;13.27;;;;;;;10.41;100.00;99329.94;4485526;31;20470;-76
2022/10/08 00:38:06;;;;;;;19.83;12.88;;;;;;;10.45;100.00;99323.53;4485531;31;20449;-76
2022/10/08 00:40:44;;;;;;;21.05;14.45;;;;;;;10.42;100.00;99319.34;4485525;31;20163;-75
2022/10/08 00:43:15;;;;;;;20.17;12.98;;;;;;;10.43;100.00;99309.69;4485873;31;20480;-75
2022/10/08 00:45:45;;;;;;;19.25;11.98;;;;;;;10.42;100.00;99310.66;4485415;32;20910;-76
2022/10/08 00:48:17;;;;;;;19.58;12.82;;;;;;;10.37;100.00;99307.56;4484183;32;20425;-75
2022/10/08 00:50:44;;;;;;;21.40;12.27;;;;;;;10.35;100.00;99299.84;4483998;32;20154;-75
2022/10/08 00:53:11;;;;;;;22.80;12.63;;;;;;;10.25;100.00;99304.94;4484111;32;20088;-75
2022/10/08 00:55:40;;;;;;;22.87;13.23;;;;;;;10.22;100.00;99307.81;4485407;31;20122;-75
2022/10/08 00:58:14;;;;;;;21.27;13.23;;;;;;;10.17;100.00;99301.28;4484104;32;20112;-76
2022/10/08 01:00:41;;;;;;;19.83;13.40;;;;;;;10.15;100.00;99297.94;4484119;32;20130;-76
2022/10/08 01:03:09;;;;;;;23.95;12.73;;;;;;;10.18;100.00;99301.16;4485179;32;20084;-75
2022/10/08 01:05:54;;;;;;;26.10;13.50;;;;;;;10.13;100.00;99298.91;4485220;32;20093;-76
2022/10/08 01:08:28;;;;;;;24.23;13.27;;;;;;;10.15;100.00;99301.41;4485120;31;20164;-76
2022/10/08 01:10:58;;;;;;;23.08;13.18;;;;;;;10.13;100.00;99309.38;4483914;32;20100;-76
2022/10/08 01:13:35;;;;;;;23.00;13.52;;;;;;;10.12;100.00;99301.63;4484287;31;20156;-76
2022/10/08 01:16:19;;;;;;;24.58;14.45;;;;;;;10.07;100.00;99294.16;4483911;32;20096;-76
2022/10/08 01:18:55;;;;;;;30.60;14.52;;;;;;;10.03;100.00;99297.94;4483668;32;20109;-75
2022/10/08 01:21:53;;;;;;;27.17;15.38;;;;;;;10.04;100.00;99294.38;4483814;32;20565;-75
2022/10/08 01:25:31;;;;;;;23.30;14.00;;;;;;;10.08;100.00;99287.13;4485264;31;20107;-76
2022/10/08 01:27:27;;;;;;;24.77;13.77;;;;;;;10.07;100.00;99283.69;4484350;32;20506;-76
2022/10/08 01:29:54;;;;;;;23.95;15.23;;;;;;;10.01;100.00;99288.53;4483924;32;20509;-75
2022/10/08 01:32:26;;;;;;;26.83;14.68;;;;;;;9.99;100.00;99280.81;4483910;32;20092;-76
2022/10/08 01:34:59;;;;;;;29.25;14.20;;;;;;;10.02;100.00;99279.75;4485048;31;20513;-75
2022/10/08 01:37:32;;;;;;;30.20;14.77;;;;;;;9.97;100.00;99269.63;4484234;32;20458;-75
2022/10/08 01:40:02;;;;;;;27.92;14.13;;;;;;;9.92;100.00;99269.19;4483900;32;20471;-76
2022/10/08 01:42:31;;;;;;;27.15;15.05;;;;;;;9.98;100.00;99265.22;4483799;32;20121;-76
2022/10/08 01:45:03;;;;;;;28.00;15.15;;;;;;;9.96;100.00;99270.59;4483967;32;20084;-75
2022/10/08 01:47:30;;;;;;;23.90;14.95;;;;;;;9.94;100.00;99265.47;4483588;32;20148;-76
2022/10/08 01:50:06;;;;;;;29.33;15.65;;;;;;;9.94;100.00;99262.03;4483582;32;20164;-76
2022/10/08 01:52:40;;;;;;;31.30;15.65;;;;;;;9.86;100.00;99261.81;4483671;32;20157;-76
2022/10/08 01:55:14;;;;;;;30.83;14.95;;;;;;;9.87;100.00;99253.00;4483805;32;20144;-75
2022/10/08 01:57:42;;;;;;;27.05;15.82;;;;;;;9.88;100.00;99258.09;4483716;32;20160;-75
2022/10/08 02:00:12;;;;;;;27.80;16.77;;;;;;;9.93;100.00;99244.66;4483714;32;20118;-75
2022/10/08 02:02:40;;;;;;;27.27;15.85;;;;;;;9.96;100.00;99260.13;4483604;32;20160;-75
2022/10/08 02:05:08;;;;;;;28.60;14.77;;;;;;;9.99;100.00;99252.03;4484846;31;20092;-75
2022/10/08 02:07:37;;;;;;;26.25;14.80;;;;;;;9.84;100.00;99248.84;4483408;32;20172;-75
2022/10/08 02:10:06;;;;;;;25.50;15.90;;;;;;;9.79;100.00;99255.41;4483479;32;20171;-76
2022/10/08 02:12:34;;;;;;;33.15;16.90;;;;;;;9.91;100.00;99254.44;4484561;31;20163;-75
2022/10/08 02:15:03;;;;;;;27.45;14.90;;;;;;;9.89;100.00;99249.31;4484529;32;20105;-76
2022/10/08 02:17:46;;;;;;;24.85;14.80;;;;;;;9.85;100.00;99241.81;4484605;31;20119;-75
2022/10/08 02:20:33;;;;;;;35.47;15.20;;;;;;;9.74;100.00;99240.06;4484439;31;20433;-75
2022/10/08 02:23:31;;;;;;;24.48;14.55;;;;;;;9.73;100.00;99243.62;4483573;32;20198;-75
2022/10/08 02:26:06;;;;;;;38.88;14.95;;;;;;;9.74;100.00;99243.50;4485166;32;20121;-75
2022/10/08 02:28:49;;;;;;;30.75;16.30;;;;;;;9.77;100.00;99245.03;4486600;31;20982;-75
2022/10/08 02:31:17;;;;;;;32.35;15.55;;;;;;;9.79;100.00;99237.91;4485123;32;20104;-75
2022/10/08 02:33:53;;;;;;;24.60;15.30;;;;;;;9.77;100.00;99237.19;4485244;32;20219;-75
2022/10/08 02:36:27;;;;;;;32.30;16.10;;;;;;;9.79;100.00;99229.22;4486685;31;20068;-75
2022/10/08 02:38:57;;;;;;;29.35;15.50;;;;;;;9.80;100.00;99242.19;4485135;32;20214;-76
2022/10/08 02:41:29;;;;;;;23.67;15.48;;;;;;;9.84;100.00;99234.91;4485034;32;20103;-75
2022/10/08 02:43:58;;;;;;;26.65;14.68;;;;;;;9.78;100.00;99228.41;4485089;32;20107;-75
2022/10/08 02:46:27;;;;;;;27.10;15.07;;;;;;;9.77;100.00;99232.78;4484766;32;20347;-75
2022/10/08 02:48:58;;;;;;;24.17;15.20;;;;;;;9.76;100.00;99239.00;4485027;32;20105;-75
2022/10/08 02:51:27;;;;;;;27.80;14.63;;;;;;;9.79;100.00;99234.47;4484741;32;20108;-75
2022/10/08 02:53:54;;;;;;;26.95;14.85;;;;;;;9.81;100.00;99232.53;4486242;31;20105;-75
2022/10/08 02:56:37;;;;;;;26.37;15.30;;;;;;;9.81;100.00;99235.16;4484866;32;20502;-75
2022/10/08 02:59:05;;;;;;;27.70;15.20;;;;;;;9.73;100.00;99228.75;4485068;32;20124;-75
2022/10/08 03:01:39;;;;;;;24.40;14.73;;;;;;;9.79;100.00;99237.06;4486314;31;20080;-75
2022/10/08 03:04:17;;;;;;;27.15;15.70;;;;;;;9.76;100.00;99225.06;4485185;32;20771;-75
2022/10/08 03:06:47;;;;;;;27.48;15.63;;;;;;;9.79;100.00;99230.03;4484670;32;20144;-75
2022/10/08 03:09:15;;;;;;;32.80;15.65;;;;;;;9.69;100.00;99235.19;4486193;31;20430;-75
2022/10/08 03:11:43;;;;;;;26.48;14.60;;;;;;;9.73;100.00;99233.16;4484617;32;20450;-76
2022/10/08 03:14:13;;;;;;;29.60;15.85;;;;;;;9.72;100.00;99226.25;4486077;31;20159;-75
2022/10/08 03:16:42;;;;;;;32.90;15.30;;;;;;;9.73;100.00;99225.28;4484854;32;20155;-76
2022/10/08 03:19:10;;;;;;;27.73;14.82;;;;;;;9.64;100.00;99224.22;4484724;32;20160;-75
2022/10/08 03:21:39;;;;;;;27.67;15.68;;;;;;;9.54;100.00;99228.53;4486112;31;20484;-75
2022/10/08 03:24:10;;;;;;;24.92;14.93;;;;;;;9.53;100.00;99232.91;4486170;31;20608;-75
2022/10/08 03:26:37;;;;;;;31.42;15.90;;;;;;;9.51;100.00;99229.59;4484689;32;20140;-75
2022/10/08 03:29:05;;;;;;;33.70;16.65;;;;;;;9.53;100.00;99232.09;4485961;31;20097;-75
2022/10/08 03:31:32;;;;;;;25.67;15.50;;;;;;;9.53;100.00;99226.88;4486243;31;20191;-75
2022/10/08 03:34:00;;;;;;;22.98;14.57;;;;;;;9.50;100.00;99232.34;4486029;31;20430;-75
2022/10/08 03:36:27;;;;;;;24.70;15.10;;;;;;;9.44;100.00;99230.19;4485724;31;20110;-75
2022/10/08 03:38:55;;;;;;;25.45;15.50;;;;;;;9.42;100.00;99227.69;4486178;31;20180;-76
2022/10/08 03:41:22;;;;;;;32.47;15.98;;;;;;;9.46;100.00;99231.72;4485906;31;20178;-75
2022/10/08 03:43:49;;;;;;;32.20;15.52;;;;;;;9.39;100.00;99227.94;4486071;31;20088;-75
2022/10/08 03:46:16;;;;;;;27.98;15.93;;;;;;;9.34;100.00;99233.53;4485736;32;20164;-75
2022/10/08 03:48:47;;;;;;;26.87;15.02;;;;;;;9.29;100.00;99230.41;4485758;31;20128;-76
2022/10/08 03:51:15;;;;;;;27.55;15.73;;;;;;;9.27;100.00;99226.25;4485896;31;20110;-75
2022/10/08 03:53:42;;;;;;;29.45;16.33;;;;;;;9.27;100.00;99221.84;4485642;31;20604;-76
2022/10/08 03:56:18;;;;;;;26.58;15.65;;;;;;;9.29;100.00;99225.19;4484495;32;20495;-76
2022/10/08 03:58:51;;;;;;;24.23;14.27;;;;;;;9.29;100.00;99229.59;4485777;31;20088;-76
2022/10/08 04:01:18;;;;;;;26.60;16.17;;;;;;;9.16;100.00;99229.66;4485700;31;20551;-75
2022/10/08 04:03:46;;;;;;;27.27;14.82;;;;;;;9.17;100.00;99229.56;4485811;32;20114;-76
2022/10/08 04:06:13;;;;;;;30.77;16.12;;;;;;;9.23;100.00;99221.28;4485551;31;20127;-74
2022/10/08 04:08:40;;;;;;;30.60;15.18;;;;;;;9.22;100.00;99224.81;4485677;31;20151;-75
2022/10/08 04:11:11;;;;;;;33.53;16.20;;;;;;;9.18;100.00;99212.94;4485556;32;20116;-75
2022/10/08 04:13:38;;;;;;;30.88;16.45;;;;;;;9.15;100.00;99218.41;4485532;31;20110;-75
2022/10/08 04:16:09;;;;;;;25.73;15.13;;;;;;;9.14;100.00;99216.72;4485551;31;20513;-75
2022/10/08 04:18:37;;;;;;;32.53;17.35;;;;;;;9.17;100.00;99218.28;4485466;32;20119;-76
2022/10/08 04:21:07;;;;;;;37.10;17.25;;;;;;;9.21;100.00;99212.69;4485303;31;20092;-75
2022/10/08 04:23:36;;;;;;;27.30;17.12;;;;;;;9.24;100.00;99212.47;4485611;31;20159;-76
2022/10/08 04:26:04;;;;;;;29.55;17.35;;;;;;;9.22;100.00;99214.38;4485544;31;20171;-75
2022/10/08 04:28:33;;;;;;;34.83;18.00;;;;;;;9.22;100.00;99208.31;4485497;31;20152;-75
2022/10/08 04:31:07;;;;;;;36.67;20.40;;;;;;;9.29;100.00;99214.72;4485385;32;20080;-75
2022/10/08 04:33:35;;;;;;;43.03;22.23;;;;;;;9.29;100.00;99206.88;4485534;31;20118;-75
2022/10/08 04:36:09;;;;;;;31.35;20.70;;;;;;;9.31;100.00;99212.84;4485563;31;20100;-75
2022/10/08 04:38:37;;;;;;;38.17;19.70;;;;;;;9.27;100.00;99208.78;4485739;31;20202;-76
2022/10/08 04:41:12;;;;;;;33.42;19.75;;;;;;;9.32;100.00;99217.09;4485527;31;20142;-75
2022/10/08 04:43:40;;;;;;;36.45;19.90;;;;;;;9.34;100.00;99212.59;4485414;31;20107;-75
2022/10/08 04:46:09;;;;;;;37.70;20.37;;;;;;;9.33;100.00;99212.72;4485046;31;20121;-76
2022/10/08 04:48:36;;;;;;;33.88;20.27;;;;;;;9.36;100.00;99212.47;4484377;31;20116;-76
2022/10/08 04:51:05;;;;;;;38.08;20.37;;;;;;;9.33;100.00;99210.09;4485291;31;20122;-75
2022/10/08 04:53:37;;;;;;;36.15;20.85;;;;;;;9.39;100.00;99214.84;4485409;31;20104;-75
2022/10/08 04:56:19;;;;;;;34.97;20.77;;;;;;;9.41;100.00;99212.94;4485693;31;20088;-75
2022/10/08 04:58:46;;;;;;;35.47;20.23;;;;;;;9.40;100.00;99211.28;4485291;31;20080;-75
2022/10/08 05:01:16;;;;;;;37.67;20.20;;;;;;;9.38;100.00;99214.00;4485684;31;20123;-76
2022/10/08 05:03:46;;;;;;;34.70;19.70;;;;;;;9.41;100.00;99213.78;4485209;31;20477;-75
2022/10/08 05:06:15;;;;;;;40.00;20.12;;;;;;;9.41;100.00;99212.94;4485183;31;20168;-75
2022/10/08 05:08:43;;;;;;;34.08;20.80;;;;;;;9.41;100.00;99219.00;4485182;31;20473;-75
2022/10/08 05:11:11;;;;;;;37.33;20.20;;;;;;;9.45;100.00;99211.78;4485384;31;20147;-75
2022/10/08 05:13:39;;;;;;;36.97;20.05;;;;;;;9.51;100.00;99215.69;4485404;31;20439;-76
2022/10/08 05:16:11;;;;;;;37.08;20.20;;;;;;;9.50;100.00;99217.47;4485088;31;20777;-75
2022/10/08 05:18:40;;;;;;;34.03;19.40;;;;;;;9.55;100.00;99217.09;4485192;31;20112;-76
2022/10/08 05:21:13;;;;;;;36.90;18.98;;;;;;;9.55;100.00;99220.56;4485154;31;20129;-76
2022/10/08 05:23:43;;;;;;;33.85;19.33;;;;;;;9.63;100.00;99219.12;4485233;31;20072;-75
2022/10/08 05:26:11;;;;;;;35.53;20.02;;;;;;;9.69;100.00;99214.25;4485140;31;20104;-76
2022/10/08 05:28:38;;;;;;;36.55;20.50;;;;;;;9.73;100.00;99207.00;4485013;31;20139;-75
2022/10/08 05:31:05;;;;;;;34.10;20.45;;;;;;;9.80;100.00;99223.06;4485257;32;20096;-75
2022/10/08 05:33:34;;;;;;;35.70;20.27;;;;;;;9.84;100.00;99219.22;4484963;32;20106;-76
2022/10/08 05:36:06;;;;;;;34.88;20.02;;;;;;;9.84;100.00;99224.44;4485092;31;20422;-76
2022/10/08 05:38:34;;;;;;;35.70;19.55;;;;;;;9.91;100.00;99225.63;4485175;31;20164;-75
2022/10/08 05:41:09;;;;;;;35.58;20.20;;;;;;;9.93;100.00;99224.56;4485360;31;20117;-76
2022/10/08 05:43:37;;;;;;;41.63;23.20;;;;;;;9.97;100.00;99219.91;4484987;31;20510;-76
2022/10/08 05:46:04;;;;;;;40.97;25.45;;;;;;;10.04;100.00;99228.94;4484828;31;20089;-75
2022/10/08 05:48:31;;;;;;;41.15;24.52;;;;;;;10.11;100.00;99232.75;4485020;31;20119;-75
2022/10/08 05:51:07;;;;;;;37.13;22.35;;;;;;;10.20;100.00;99235.56;4483485;32;20112;-75
2022/10/08 05:53:38;;;;;;;39.70;20.17;;;;;;;10.23;100.00;99230.91;4484698;31;20123;-76
2022/10/08 05:56:08;;;;;;;47.45;21.23;;;;;;;10.28;100.00;99238.41;4484900;31;20092;-76
2022/10/08 05:58:36;;;;;;;41.25;23.27;;;;;;;10.39;100.00;99246.25;4484232;31;20146;-75
2022/10/08 06:01:05;;;;;;;44.80;28.42;;;;;;;10.53;100.00;99245.13;4484865;31;20498;-75
2022/10/08 06:03:33;;;;;;;44.05;28.95;;;;;;;10.61;100.00;99257.59;4484668;31;20116;-75
2022/10/08 06:06:02;;;;;;;51.28;30.45;;;;;;;10.65;100.00;99252.00;4482095;31;77777;-74
2022/10/08 06:08:29;;;;;;;52.97;32.08;;;;;;;10.65;100.00;99246.75;4483223;32;20109;-75
2022/10/08 06:10:57;;;;;;;41.53;26.30;;;;;;;10.67;100.00;99246.63;4484659;31;20469;-75
2022/10/08 06:13:25;;;;;;;32.40;19.30;;;;;;;10.75;100.00;99254.69;4484480;31;20163;-76
2022/10/08 06:16:08;;;;;;;37.95;17.77;;;;;;;10.85;100.00;99259.19;4484517;31;20076;-76
2022/10/08 06:18:38;;;;;;;32.67;17.37;;;;;;;10.96;100.00;99265.19;4484560;32;20135;-75
2022/10/08 06:21:25;;;;;;;26.85;16.80;;;;;;;11.10;100.00;99268.47;4484277;31;20167;-75
2022/10/08 06:23:54;;;;;;;28.52;16.00;;;;;;;11.22;100.00;99271.84;4484744;31;20076;-75
2022/10/08 06:26:25;;;;;;;25.88;15.77;;;;;;;11.35;100.00;99269.84;4484363;31;20600;-75
2022/10/08 06:28:55;;;;;;;27.37;16.05;;;;;;;11.51;100.00;99274.63;4484615;31;20131;-75
2022/10/08 06:31:22;;;;;;;23.12;14.23;;;;;;;11.56;100.00;99269.81;4484722;31;20096;-75
2022/10/08 06:33:49;;;;;;;22.90;14.82;;;;;;;11.67;100.00;99269.75;4484195;31;20085;-76
2022/10/08 06:36:19;;;;;;;23.52;14.65;;;;;;;11.90;100.00;99264.31;4484383;32;20084;-75
2022/10/08 06:38:51;;;;;;;22.85;14.20;;;;;;;11.93;100.00;99264.06;4483141;32;20143;-76
2022/10/08 06:41:19;;;;;;;23.42;14.05;;;;;;;11.86;100.00;99258.47;4484276;31;20138;-75
2022/10/08 06:43:46;;;;;;;21.62;14.20;;;;;;;11.92;100.00;99269.41;4484035;31;20139;-75
2022/10/08 06:46:14;;;;;;;24.80;13.85;;;;;;;12.03;100.00;99275.41;4484133;31;20084;-75
2022/10/08 06:48:41;;;;;;;22.40;12.95;;;;;;;12.10;100.00;99275.72;4483999;31;20100;-75
2022/10/08 06:51:11;;;;;;;19.65;11.85;;;;;;;12.36;100.00;99280.47;4483939;31;20088;-76
2022/10/08 06:53:39;;;;;;;20.95;12.00;;;;;;;12.41;100.00;99283.50;4483949;31;20096;-76
2022/10/08 06:56:13;;;;;;;17.92;11.12;;;;;;;12.59;100.00;99281.84;4483846;31;20100;-76
2022/10/08 06:58:41;;;;;;;17.52;11.50;;;;;;;12.65;100.00;99291.00;4484134;31;20103;-75
2022/10/08 07:01:16;;;;;;;17.23;10.52;;;;;;;12.82;100.00;99286.84;4484207;31;20465;-75
2022/10/08 07:03:51;;;;;;;15.40;9.90;;;;;;;12.88;100.00;99291.56;4483950;31;20076;-75
2022/10/08 07:06:18;;;;;;;15.35;10.40;;;;;;;12.98;100.00;99286.31;4483674;31;20467;-75
2022/10/08 07:08:46;;;;;;;18.75;10.13;;;;;;;13.04;100.00;99288.38;4484091;31;20156;-76
2022/10/08 07:11:15;;;;;;;14.10;9.68;;;;;;;13.07;100.00;99288.09;4485139;31;20118;-75
2022/10/08 07:13:43;;;;;;;16.08;9.02;;;;;;;13.18;100.00;99284.47;4485962;31;20120;-75
2022/10/08 07:16:17;;;;;;;14.52;9.05;;;;;;;13.26;100.00;99281.12;4485923;31;20151;-76
2022/10/08 07:18:49;;;;;;;26.33;10.30;;;;;;;13.40;100.00;99277.25;4485899;31;20140;-75
2022/10/08 07:21:18;;;;;;;19.50;10.82;;;;;;;13.43;100.00;99282.22;4485890;31;20160;-76
2022/10/08 07:23:45;;;;;;;16.83;9.85;;;;;;;13.58;100.00;99291.34;4486130;31;20114;-75
2022/10/08 07:26:14;;;;;;;16.00;9.73;;;;;;;13.58;100.00;99288.72;4485837;31;20551;-75
2022/10/08 07:28:53;;;;;;;15.38;9.15;;;;;;;13.65;100.00;99287.13;4486355;31;20172;-76
2022/10/08 07:31:22;;;;;;;16.20;9.90;;;;;;;13.74;100.00;99287.25;4486373;31;20112;-76
2022/10/08 07:33:49;;;;;;;16.25;9.18;;;;;;;13.70;100.00;99288.53;4485994;32;20140;-76
2022/10/08 07:36:19;;;;;;;17.25;9.48;;;;;;;13.81;100.00;99278.63;4485759;31;20152;-76
2022/10/08 07:38:47;;;;;;;14.75;9.10;;;;;;;13.87;100.00;99281.66;4486070;31;20100;-76
2022/10/08 07:41:14;;;;;;;17.65;9.38;;;;;;;13.87;100.00;99279.88;4485878;31;20240;-76
2022/10/08 07:43:42;;;;;;;18.80;10.00;;;;;;;14.01;100.00;99279.38;4485932;31;20144;-76
2022/10/08 07:46:10;;;;;;;15.95;9.90;;;;;;;13.98;100.00;99279.66;4485707;31;20163;-75
2022/10/08 07:48:38;;;;;;;20.37;9.50;;;;;;;13.99;100.00;99275.25;4485663;31;20176;-76
2022/10/08 07:51:07;;;;;;;16.85;9.25;;;;;;;14.16;100.00;99281.53;4485616;31;20581;-76
2022/10/08 07:53:35;;;;;;;13.23;8.52;;;;;;;14.36;100.00;99276.97;4485713;31;20603;-76
2022/10/08 07:56:03;;;;;;;13.50;8.63;;;;;;;14.44;100.00;99278.84;4485768;31;20144;-75
2022/10/08 07:58:31;;;;;;;13.07;8.85;;;;;;;14.57;100.00;99279.31;4485789;31;20101;-75
2022/10/08 08:00:59;;;;;;;16.33;7.95;;;;;;;14.66;100.00;99275.81;4485766;31;20161;-76
2022/10/08 08:03:27;;;;;;;13.48;8.65;;;;;;;14.71;100.00;99280.62;4485705;32;20563;-75
2022/10/08 08:06:09;;;;;;;11.93;7.57;;;;;;;14.54;100.00;99279.63;4485583;31;20137;-76
2022/10/08 08:08:38;;;;;;;11.82;8.43;;;;;;;14.67;100.00;99279.25;4485463;31;20124;-76
2022/10/08 08:11:07;;;;;;;12.30;7.75;;;;;;;14.54;100.00;99276.97;4485886;31;20498;-76
2022/10/08 08:13:35;;;;;;;16.15;8.80;;;;;;;14.54;100.00;99276.97;4485465;31;20110;-76
2022/10/08 08:16:08;;;;;;;13.23;7.72;;;;;;;14.68;100.00;99279.09;4485590;32;20163;-76
2022/10/08 08:18:38;;;;;;;12.55;8.27;;;;;;;14.89;99.40;99280.62;4484250;32;20556;-76
2022/10/08 08:21:17;;;;;;;12.43;8.45;;;;;;;14.73;99.25;99278.66;4485253;31;20162;-76
2022/10/08 08:23:46;;;;;;;13.25;8.43;;;;;;;14.86;99.78;99278.28;4485948;31;20069;-76
2022/10/08 08:26:28;;;;;;;12.27;8.23;;;;;;;14.96;98.46;99281.66;4485787;31;20449;-75
2022/10/08 08:28:57;;;;;;;12.73;8.60;;;;;;;15.06;99.07;99282.41;4485826;31;20092;-76
2022/10/08 08:31:29;;;;;;;18.45;9.60;;;;;;;15.06;100.00;99284.19;4485632;31;20783;-76
2022/10/08 08:33:59;;;;;;;16.55;9.18;;;;;;;15.15;99.04;99280.62;4485320;31;20167;-76
2022/10/08 08:36:29;;;;;;;21.67;9.90;;;;;;;15.21;99.21;99277.37;4485743;31;20796;-76
2022/10/08 08:38:56;;;;;;;13.85;8.85;;;;;;;15.25;97.23;99277.91;4485485;31;20088;-76
2022/10/08 08:41:32;;;;;;;13.90;8.60;;;;;;;15.19;97.23;99284.63;4485543;31;20465;-76
2022/10/08 08:44:06;;;;;;;14.68;9.40;;;;;;;15.27;98.71;99278.59;4485600;31;20167;-75
2022/10/08 08:46:35;;;;;;;17.17;9.40;;;;;;;15.19;98.73;99281.19;4484303;32;20400;-76
2022/10/08 08:49:12;;;;;;;17.52;9.35;;;;;;;15.38;98.99;99275.69;4484056;32;20127;-75
2022/10/08 08:51:40;;;;;;;17.60;10.07;;;;;;;15.42;96.64;99270.94;4485488;31;20548;-75
2022/10/08 08:54:07;;;;;;;15.40;9.10;;;;;;;15.40;95.68;99280.81;4485424;32;20476;-75
2022/10/08 08:56:34;;;;;;;14.15;9.10;;;;;;;15.27;97.64;99271.47;4485412;31;20085;-76
2022/10/08 08:59:21;;;;;;;19.55;10.27;;;;;;;15.50;99.44;99270.97;4485363;31;20100;-75
2022/10/08 09:01:50;;;;;;;12.52;8.80;;;;;;;15.46;95.96;99274.06;4485449;31;20111;-75
2022/10/08 09:04:23;;;;;;;17.20;9.15;;;;;;;15.51;95.09;99277.09;4484191;32;20524;-75
2022/10/08 09:06:51;;;;;;;15.40;8.25;;;;;;;15.65;93.94;99271.22;4485427;32;20146;-75
2022/10/08 09:09:35;;;;;;;14.60;8.57;;;;;;;15.74;91.99;99269.44;4484021;32;20162;-76
2022/10/08 09:12:39;;;;;;;11.00;8.40;;;;;;;15.93;95.23;99273.69;4485692;31;20242;-75
2022/10/08 09:15:17;;;;;;;14.95;8.30;;;;;;;16.00;91.68;99277.34;4483847;32;20126;-75
2022/10/08 09:17:48;;;;;;;17.08;8.93;;;;;;;16.18;91.03;99279.06;4483908;32;20093;-75
2022/10/08 09:20:16;;;;;;;14.35;9.32;;;;;;;16.24;91.83;99281.88;4483940;32;20555;-76
2022/10/08 09:22:44;;;;;;;13.48;9.00;;;;;;;16.23;90.50;99276.75;4484073;32;20160;-75
2022/10/08 09:25:15;;;;;;;13.45;9.13;;;;;;;16.14;93.93;99279.38;4484024;32;20108;-75
2022/10/08 09:27:51;;;;;;;14.55;9.02;;;;;;;16.31;88.18;99277.59;4485078;31;20084;-75
2022/10/08 09:30:38;;;;;;;17.20;8.82;;;;;;;16.14;93.11;99278.56;4485141;31;20120;-75
2022/10/08 09:33:11;;;;;;;11.60;8.10;;;;;;;16.36;93.09;99271.84;4483053;32;20148;-75
2022/10/08 09:35:43;;;;;;;15.10;8.77;;;;;;;16.49;92.97;99272.19;4485256;31;20089;-75
2022/10/08 09:38:27;;;;;;;13.40;8.25;;;;;;;16.59;90.74;99268.56;4485220;31;20144;-75
2022/10/08 09:40:58;;;;;;;13.95;8.73;;;;;;;16.59;87.08;99271.22;4485253;31;20108;-76
2022/10/08 09:43:25;;;;;;;15.52;8.50;;;;;;;16.65;88.39;99271.41;4485015;31;20524;-75
2022/10/08 09:45:56;;;;;;;14.95;7.40;;;;;;;16.71;89.25;99275.19;4484875;31;20167;-76
2022/10/08 09:48:24;;;;;;;14.32;8.68;;;;;;;16.52;86.08;99270.19;4485010;31;20627;-76
2022/10/08 09:50:58;;;;;;;14.65;8.30;;;;;;;16.49;88.52;99266.91;4484756;31;20089;-75
2022/10/08 09:53:52;;;;;;;12.82;8.45;;;;;;;16.63;87.99;99262.78;4484867;31;20080;-75
2022/10/08 09:56:26;;;;;;;11.12;7.65;;;;;;;16.83;87.74;99252.69;4484981;31;20481;-75
2022/10/08 09:59:00;;;;;;;11.23;7.57;;;;;;;16.85;85.52;99250.72;4484913;31;20559;-76
2022/10/08 10:01:30;;;;;;;11.30;7.70;;;;;;;16.87;84.11;99255.06;4484871;31;20155;-76
2022/10/08 10:03:59;;;;;;;15.30;7.97;;;;;;;16.95;83.87;99257.69;4484829;31;20107;-76
2022/10/08 10:06:28;;;;;;;14.10;7.32;;;;;;;16.90;87.27;99252.91;4484710;32;20084;-75
2022/10/08 10:08:59;;;;;;;12.48;7.47;;;;;;;17.08;89.27;99250.09;4483429;32;20139;-75
2022/10/08 10:11:32;;;;;;;11.75;7.85;;;;;;;16.98;86.00;99250.25;4483462;32;20096;-76
2022/10/08 10:14:10;;;;;;;10.55;7.32;;;;;;;17.15;85.91;99247.59;4484628;31;20117;-76
2022/10/08 10:16:40;;;;;;;11.10;6.87;;;;;;;17.16;84.41;99242.12;4483238;32;20115;-76
2022/10/08 10:19:15;;;;;;;12.82;7.15;;;;;;;17.29;80.07;99235.47;4483088;32;20115;-75
2022/10/08 10:21:52;;;;;;;11.68;7.57;;;;;;;17.28;84.30;99234.66;4484534;31;20160;-75
2022/10/08 10:24:41;;;;;;;10.52;6.75;;;;;;;17.59;81.65;99233.09;4484614;31;20090;-75
2022/10/08 10:27:13;;;;;;;9.13;6.43;;;;;;;17.46;81.53;99231.00;4484471;31;20100;-75
2022/10/08 10:29:48;;;;;;;13.02;7.05;;;;;;;17.59;82.33;99230.44;4483134;32;20114;-75
2022/10/08 10:32:20;;;;;;;11.98;6.62;;;;;;;17.82;83.05;99220.75;4483422;32;20619;-76
2022/10/08 10:34:56;;;;;;;11.82;6.55;;;;;;;18.11;85.29;99219.31;4483041;32;20100;-75
2022/10/08 10:37:32;;;;;;;10.20;6.82;;;;;;;18.23;81.53;99220.53;4483183;32;20096;-75
2022/10/08 10:40:15;;;;;;;11.32;7.20;;;;;;;18.50;80.57;99217.53;4484244;31;20157;-76
2022/10/08 10:42:49;;;;;;;9.77;6.35;;;;;;;18.11;79.07;99211.34;4484453;31;20108;-75
2022/10/08 10:45:27;;;;;;;13.62;7.05;;;;;;;18.45;75.92;99210.13;4484359;32;20096;-75
2022/10/08 10:47:54;;;;;;;7.65;6.15;;;;;;;18.73;75.43;99206.94;4485240;32;20533;-76
2022/10/08 10:50:32;;;;;;;8.38;6.10;;;;;;;18.35;78.87;99202.41;4486184;31;20165;-76
2022/10/08 10:53:32;;;;;;;11.70;6.12;;;;;;;18.23;74.20;99201.97;4485299;32;20144;-75
2022/10/08 10:56:09;;;;;;;9.63;6.18;;;;;;;18.59;75.81;99197.91;4485217;32;20548;-76
2022/10/08 10:59:14;;;;;;;11.55;5.82;;;;;;;18.52;74.32;99189.84;4485196;32;20097;-76
2022/10/08 11:01:45;;;;;;;10.48;5.97;;;;;;;18.49;78.38;99189.38;4436990;32;20078;-75
2022/10/08 11:04:19;;;;;;;10.73;5.68;;;;;;;18.66;77.67;99184.75;4437077;32;20113;-76
2022/10/08 11:06:46;;;;;;;9.63;5.85;;;;;;;18.21;75.42;99185.44;4436978;32;20563;-76
2022/10/08 11:09:28;;;;;;;10.88;5.95;;;;;;;18.16;78.16;99186.94;4436873;32;20149;-76
2022/10/08 11:12:00;;;;;;;14.02;5.62;;;;;;;18.31;74.66;99181.72;4436888;32;20155;-75
2022/10/08 11:14:37;;;;;;;10.77;5.20;;;;;;;18.51;73.89;99174.91;4424206;32;20176;-76
2022/10/08 11:17:13;;;;;;;12.05;5.53;;;;;;;18.39;72.40;99173.69;4436787;32;20327;-76
2022/10/08 11:20:08;;;;;;;12.02;5.45;;;;;;;18.44;70.79;99177.47;4436851;32;20164;-75
2022/10/08 11:22:41;;;;;;;10.43;5.32;;;;;;;18.69;72.53;99179.09;4375878;32;20148;-76
2022/10/08 11:25:24;;;;;;;7.10;5.25;;;;;;;18.83;75.69;99170.31;4375962;32;20149;-75
2022/10/08 11:28:12;;;;;;;8.13;5.87;;;;;;;18.48;74.91;99161.19;4376045;32;20257;-76
2022/10/08 11:31:01;;;;;;;7.85;5.72;;;;;;;18.34;73.22;99168.09;4375915;32;20145;-75
2022/10/08 11:33:29;;;;;;;8.68;5.20;;;;;;;18.90;73.03;99160.66;4363750;32;20091;-76
2022/10/08 11:36:20;;;;;;;10.07;5.53;;;;;;;19.12;69.61;99158.94;4363329;32;20177;-76
2022/10/08 11:39:09;;;;;;;9.15;5.12;;;;;;;18.86;68.83;99161.19;4406149;32;20179;-76